Time;durP1;ratioP1;P1;durP2;ratioP2;P2;SDS_P1;SDS_P2;PMS_P1;PMS_P2;Temp;Humidity;BMP_temperature;BMP_pressure;BME280_temperature;BME280_humidity;BME280_pressure;Samples;Min_cycle;Max_cycle;Signal;HPM_P1;HPM_P2
2022/08/28 00:00:45;;;;;;;7.05;1.50;;;17.80;99.90;;;;;;7318692;32;20892;-61
2022/08/28 00:04:46;;;;;;;5.43;1.27;;;17.80;99.90;;;;;;7318102;32;20176;-61
2022/08/28 00:08:48;;;;;;;8.05;1.35;;;17.70;99.90;;;;;;7305193;32;20108;-61
2022/08/28 00:12:53;;;;;;;6.30;1.30;;;17.70;99.90;;;;;;7319559;32;20104;-61
2022/08/28 00:16:55;;;;;;;9.10;1.60;;;17.60;99.90;;;;;;7313010;32;20103;-61
2022/08/28 00:20:58;;;;;;;6.57;1.83;;;17.60;99.90;;;;;;7311221;32;20122;-60
2022/08/28 00:24:59;;;;;;;8.18;1.65;;;17.80;99.90;;;;;;7318855;32;20917;-61
2022/08/28 00:29:03;;;;;;;8.40;1.60;;;17.60;99.90;;;;;;7315386;32;20221;-61
2022/08/28 00:33:10;;;;;;;6.97;1.58;;;17.50;99.90;;;;;;7315329;32;20116;-61
2022/08/28 00:37:12;;;;;;;6.45;1.30;;;17.50;99.90;;;;;;7312858;32;20103;-61
2022/08/28 00:41:13;;;;;;;6.90;1.45;;;17.40;99.90;;;;;;7314517;32;20237;-61
2022/08/28 00:45:29;;;;;;;6.35;1.83;;;17.50;99.90;;;;;;7313741;32;20461;-61
2022/08/28 00:49:34;;;;;;;6.85;2.05;;;17.50;99.90;;;;;;7313649;32;20123;-61
2022/08/28 00:53:45;;;;;;;6.28;2.12;;;17.30;99.90;;;;;;7314280;32;20725;-61
2022/08/28 00:57:52;;;;;;;7.78;2.08;;;17.30;99.90;;;;;;7302021;32;20203;-60
2022/08/28 01:01:56;;;;;;;7.63;2.03;;;17.20;99.90;;;;;;7310285;32;20231;-61
2022/08/28 01:05:58;;;;;;;8.82;2.20;;;17.20;99.90;;;;;;7318237;32;20237;-61
2022/08/28 01:10:01;;;;;;;8.15;2.25;;;17.10;99.90;;;;;;7290076;32;20128;-60
2022/08/28 01:14:04;;;;;;;8.80;2.53;;;17.10;99.90;;;;;;7316030;32;20178;-61
2022/08/28 01:18:09;;;;;;;7.55;2.80;;;17.00;99.90;;;;;;7313016;32;20267;-61
2022/08/28 01:22:37;;;;;;;8.23;2.42;;;17.00;99.90;;;;;;7319587;32;20132;-60
2022/08/28 01:26:40;;;;;;;8.77;2.70;;;17.00;99.90;;;;;;7319810;32;20242;-60
2022/08/28 01:30:45;;;;;;;11.80;2.60;;;16.90;99.90;;;;;;7318327;32;20100;-60
2022/08/28 01:34:47;;;;;;;8.20;2.75;;;16.90;99.90;;;;;;7326653;32;20108;-59
2022/08/28 01:38:55;;;;;;;8.95;2.72;;;16.80;99.90;;;;;;7321509;32;20123;-60
2022/08/28 01:43:11;;;;;;;10.35;3.25;;;16.80;99.90;;;;;;7313343;32;20168;-61
2022/08/28 01:47:13;;;;;;;10.73;3.12;;;16.80;99.90;;;;;;7319134;32;20303;-61
2022/08/28 01:51:14;;;;;;;10.27;3.30;;;16.80;99.90;;;;;;7319048;32;20227;-60
2022/08/28 01:55:16;;;;;;;11.63;3.65;;;16.70;99.90;;;;;;7322133;32;20135;-59
2022/08/28 01:59:22;;;;;;;11.50;3.12;;;16.70;99.90;;;;;;7313619;32;20171;-59
2022/08/28 02:03:24;;;;;;;12.70;3.22;;;16.60;99.90;;;;;;7315821;32;20189;-61
2022/08/28 02:07:26;;;;;;;11.57;3.55;;;16.60;99.90;;;;;;7308556;32;20112;-61
2022/08/28 02:11:29;;;;;;;13.55;3.28;;;16.60;99.90;;;;;;7316138;32;20103;-59
2022/08/28 02:15:33;;;;;;;12.20;3.62;;;16.50;99.90;;;;;;7317721;32;20183;-60
2022/08/28 02:19:35;;;;;;;10.88;4.20;;;16.50;99.90;;;;;;7304841;32;20337;-60
2022/08/28 02:23:39;;;;;;;11.98;3.53;;;16.30;99.90;;;;;;7318710;32;20256;-60
2022/08/28 02:27:41;;;;;;;14.87;4.18;;;16.20;99.90;;;;;;7319829;32;20125;-60
2022/08/28 02:31:43;;;;;;;13.68;3.75;;;16.10;99.90;;;;;;7318232;32;20265;-60
2022/08/28 02:35:45;;;;;;;15.93;4.07;;;16.10;99.90;;;;;;7298822;32;20116;-59
2022/08/28 02:39:47;;;;;;;13.48;3.83;;;16.00;99.90;;;;;;7315081;32;20134;-60
2022/08/28 02:43:48;;;;;;;10.95;3.78;;;16.00;99.90;;;;;;7303062;32;20413;-60
2022/08/28 02:47:52;;;;;;;10.30;3.53;;;16.00;99.90;;;;;;7311690;32;20508;-60
2022/08/28 02:51:55;;;;;;;12.65;3.70;;;16.00;99.90;;;;;;7316099;32;20486;-60
2022/08/28 02:55:59;;;;;;;9.88;3.70;;;15.90;99.90;;;;;;7318637;32;20120;-60
2022/08/28 03:00:06;;;;;;;14.00;4.40;;;15.80;99.90;;;;;;7319268;32;20647;-61
2022/08/28 03:04:08;;;;;;;15.30;3.70;;;15.80;99.90;;;;;;7314146;32;20278;-61
2022/08/28 03:08:10;;;;;;;12.60;3.28;;;15.70;99.90;;;;;;7318750;32;20256;-60
2022/08/28 03:12:12;;;;;;;10.25;3.60;;;15.80;99.90;;;;;;7317054;32;20173;-60
2022/08/28 03:16:14;;;;;;;13.15;4.20;;;15.80;99.90;;;;;;7298852;32;20209;-60
2022/08/28 03:20:15;;;;;;;16.83;3.42;;;15.70;99.90;;;;;;7322448;32;20104;-60
2022/08/28 03:24:17;;;;;;;12.93;3.70;;;15.70;99.90;;;;;;7319033;32;20173;-59
2022/08/28 03:28:19;;;;;;;13.95;3.60;;;15.70;99.90;;;;;;7316620;32;20104;-60
2022/08/28 03:32:21;;;;;;;11.85;4.07;;;15.70;99.90;;;;;;7312454;32;20182;-60
2022/08/28 03:36:25;;;;;;;10.60;3.65;;;15.70;99.90;;;;;;7305741;32;20308;-60
2022/08/28 03:40:27;;;;;;;13.65;3.95;;;15.70;99.90;;;;;;7318656;32;20111;-60
2022/08/28 03:44:30;;;;;;;10.55;4.35;;;15.70;99.90;;;;;;7302036;32;20108;-60
2022/08/28 03:48:35;;;;;;;14.85;4.53;;;15.60;99.90;;;;;;7316612;32;20118;-60
2022/08/28 03:52:39;;;;;;;12.55;3.70;;;15.60;99.90;;;;;;7320721;32;20551;-59
2022/08/28 03:56:41;;;;;;;13.13;3.58;;;15.50;99.90;;;;;;7316936;32;20591;-60
2022/08/28 04:00:44;;;;;;;11.68;3.58;;;15.60;99.90;;;;;;7322452;32;20169;-60
2022/08/28 04:04:48;;;;;;;11.73;3.67;;;15.50;99.90;;;;;;7319099;32;20100;-59
2022/08/28 04:08:50;;;;;;;12.35;4.07;;;15.40;99.90;;;;;;7307557;32;20198;-60
2022/08/28 04:12:52;;;;;;;13.70;3.62;;;15.30;99.90;;;;;;7320968;32;20229;-60
2022/08/28 04:16:54;;;;;;;8.98;2.95;;;15.20;99.90;;;;;;7316205;32;20272;-60
2022/08/28 04:21:08;;;;;;;10.40;3.60;;;15.20;99.90;;;;;;7317081;32;20602;-60
2022/08/28 04:25:10;;;;;;;10.75;3.33;;;15.00;99.90;;;;;;7318123;32;20167;-60
2022/08/28 04:29:12;;;;;;;8.35;3.25;;;15.10;99.90;;;;;;7318634;32;20231;-60
2022/08/28 04:33:14;;;;;;;15.02;3.60;;;15.00;99.90;;;;;;7314860;32;20665;-59
2022/08/28 04:37:17;;;;;;;9.55;3.33;;;14.90;99.90;;;;;;7316318;32;20708;-60
2022/08/28 04:41:19;;;;;;;10.10;3.30;;;14.90;99.90;;;;;;7312973;32;20164;-59
2022/08/28 04:45:21;;;;;;;10.98;3.47;;;14.80;99.90;;;;;;7313063;32;20380;-60
2022/08/28 04:49:23;;;;;;;14.52;3.00;;;14.80;99.90;;;;;;7311515;32;20151;-60
2022/08/28 04:53:27;;;;;;;17.60;3.35;;;14.80;99.90;;;;;;7307752;32;20104;-60
2022/08/28 04:57:29;;;;;;;18.08;3.25;;;14.60;99.90;;;;;;7312035;32;20186;-60
2022/08/28 05:01:37;;;;;;;12.82;3.05;;;14.70;99.90;;;;;;7316521;32;20799;-60
2022/08/28 05:05:47;;;;;;;9.40;2.90;;;14.70;99.90;;;;;;7311696;32;20120;-58
2022/08/28 05:09:52;;;;;;;10.13;2.97;;;14.80;99.90;;;;;;7313710;32;20639;-60
2022/08/28 05:13:54;;;;;;;12.15;3.37;;;14.70;99.90;;;;;;7284619;32;20099;-60
2022/08/28 05:17:58;;;;;;;11.73;3.03;;;14.70;99.90;;;;;;7314861;32;20830;-62
2022/08/28 05:21:59;;;;;;;15.93;3.65;;;14.70;99.90;;;;;;7312735;32;20150;-60
2022/08/28 05:26:01;;;;;;;9.73;3.47;;;14.80;99.90;;;;;;7314760;32;20504;-59
2022/08/28 05:30:15;;;;;;;10.00;3.20;;;14.90;99.90;;;;;;7313153;32;20742;-60
2022/08/28 05:34:17;;;;;;;14.50;3.10;;;15.00;99.90;;;;;;7316507;32;20112;-59
2022/08/28 05:38:19;;;;;;;8.75;2.92;;;15.00;99.90;;;;;;7299834;32;20606;-59
2022/08/28 05:42:20;;;;;;;12.25;3.20;;;15.10;99.90;;;;;;7309137;32;20271;-60
2022/08/28 05:46:23;;;;;;;12.27;2.95;;;15.20;99.90;;;;;;7315907;32;20129;-59
2022/08/28 05:50:25;;;;;;;10.65;2.83;;;15.20;99.90;;;;;;7300880;32;20203;-59
2022/08/28 05:54:26;;;;;;;11.32;3.00;;;15.40;99.90;;;;;;7309413;32;20726;-59
2022/08/28 05:58:31;;;;;;;13.02;2.60;;;15.40;99.90;;;;;;7292464;32;20272;-59
2022/08/28 06:02:35;;;;;;;9.60;2.47;;;15.40;99.90;;;;;;7316106;32;20306;-59
2022/08/28 06:06:39;;;;;;;12.37;3.08;;;15.40;99.90;;;;;;7320590;32;20116;-59
2022/08/28 06:10:44;;;;;;;11.02;2.92;;;15.40;99.90;;;;;;7310039;32;20119;-67
2022/08/28 06:14:51;;;;;;;15.20;2.80;;;15.40;99.90;;;;;;7322654;32;20118;-70
2022/08/28 06:18:56;;;;;;;8.77;2.35;;;15.40;99.90;;;;;;7316799;32;20189;-68
2022/08/28 06:22:58;;;;;;;14.43;3.30;;;15.40;99.90;;;;;;7321850;32;20223;-69
2022/08/28 06:27:00;;;;;;;10.48;2.95;;;15.30;99.90;;;;;;7310625;32;20112;-70
2022/08/28 06:31:03;;;;;;;9.65;2.60;;;15.30;99.90;;;;;;7313845;32;20104;-70
2022/08/28 06:35:24;;;;;;;13.38;2.75;;;15.30;99.90;;;;;;7316011;32;20186;-69
2022/08/28 06:39:26;;;;;;;15.30;2.53;;;15.30;99.90;;;;;;7312265;32;20174;-66
2022/08/28 06:43:28;;;;;;;7.18;2.87;;;15.30;99.90;;;;;;7318786;32;20269;-65
2022/08/28 06:47:30;;;;;;;10.57;2.62;;;15.30;99.90;;;;;;7316500;32;20671;-65
2022/08/28 06:51:33;;;;;;;15.50;5.43;;;15.40;99.90;;;;;;7315348;32;20146;-66
2022/08/28 06:55:36;;;;;;;8.13;2.55;;;15.50;99.90;;;;;;7319947;32;20651;-65
2022/08/28 06:59:39;;;;;;;11.48;2.78;;;15.60;99.90;;;;;;7315237;32;20520;-67
2022/08/28 07:03:41;;;;;;;9.50;2.78;;;15.70;99.90;;;;;;7320432;32;20794;-57
2022/08/28 07:07:45;;;;;;;7.28;2.00;;;15.80;99.90;;;;;;7302963;32;20276;-58
2022/08/28 07:11:46;;;;;;;14.38;2.72;;;15.90;99.90;;;;;;7316792;32;20825;-58
2022/08/28 07:15:48;;;;;;;16.20;2.70;;;16.20;99.90;;;;;;7319228;32;20571;-67
2022/08/28 07:19:50;;;;;;;12.13;3.03;;;16.30;99.90;;;;;;7314540;32;20254;-66
2022/08/28 07:23:53;;;;;;;10.00;2.65;;;16.40;99.90;;;;;;7304317;32;20103;-65
2022/08/28 07:27:55;;;;;;;10.32;2.50;;;16.50;99.90;;;;;;7311079;32;20242;-59
2022/08/28 07:31:57;;;;;;;11.30;2.30;;;16.60;99.90;;;;;;7312034;32;20657;-58
2022/08/28 07:36:00;;;;;;;12.75;2.30;;;16.80;99.90;;;;;;7319531;32;20562;-58
2022/08/28 07:40:03;;;;;;;9.30;2.10;;;16.70;99.90;;;;;;7314418;32;20100;-58
2022/08/28 07:48:27;;;;;;;8.65;2.08;;;17.00;99.90;;;;;;7317399;32;20183;-58
2022/08/28 07:52:29;;;;;;;10.13;2.30;;;17.10;99.90;;;;;;7312636;32;20108;-58
2022/08/28 07:56:31;;;;;;;9.23;2.30;;;17.20;99.90;;;;;;7322622;32;20108;-57
2022/08/28 08:00:33;;;;;;;13.32;2.10;;;17.60;99.90;;;;;;7300276;32;20248;-58
2022/08/28 08:04:35;;;;;;;10.50;2.15;;;17.80;99.90;;;;;;7315202;32;20694;-58
2022/08/28 08:08:37;;;;;;;14.68;2.42;;;17.90;99.90;;;;;;7301140;32;20448;-58
2022/08/28 08:12:41;;;;;;;11.30;2.75;;;17.80;99.90;;;;;;7317926;32;20232;-58
2022/08/28 08:16:45;;;;;;;10.57;2.25;;;17.70;99.90;;;;;;7319818;32;20096;-57
2022/08/28 08:20:46;;;;;;;7.03;2.00;;;17.70;99.90;;;;;;7318186;32;20176;-58
2022/08/28 08:24:48;;;;;;;11.02;2.20;;;17.90;99.90;;;;;;7315612;32;20179;-57
2022/08/28 08:28:50;;;;;;;12.32;2.08;;;18.00;99.90;;;;;;7304739;32;20273;-57
2022/08/28 08:32:52;;;;;;;11.18;2.15;;;18.30;99.90;;;;;;7315182;32;20123;-57
2022/08/28 08:36:55;;;;;;;8.73;1.85;;;18.20;99.90;;;;;;7318763;32;20178;-66
2022/08/28 08:40:59;;;;;;;7.60;1.95;;;18.10;99.90;;;;;;7315294;32;20209;-65
2022/08/28 08:45:03;;;;;;;12.85;2.15;;;18.30;99.90;;;;;;7321075;32;20134;-68
2022/08/28 08:49:13;;;;;;;7.82;2.10;;;18.50;99.90;;;;;;7316447;32;20658;-67
2022/08/28 08:53:30;;;;;;;13.93;2.75;;;18.60;99.90;;;;;;7314777;32;20267;-69
2022/08/28 08:57:35;;;;;;;11.00;2.37;;;18.60;99.90;;;;;;7317397;32;20792;-70
2022/08/28 09:01:43;;;;;;;7.28;2.05;;;18.60;99.90;;;;;;7317296;32;20129;-70
2022/08/28 09:05:52;;;;;;;11.15;2.80;;;18.50;99.90;;;;;;7319751;32;20258;-68
2022/08/28 09:09:56;;;;;;;12.60;2.25;;;19.50;99.90;;;;;;7301701;32;20486;-68
2022/08/28 09:14:30;;;;;;;9.13;2.37;;;19.80;99.90;;;;;;7309921;32;20256;-69
2022/08/28 09:18:33;;;;;;;9.25;2.40;;;20.30;99.90;;;;;;7307111;32;20124;-70
2022/08/28 09:22:36;;;;;;;8.30;2.28;;;20.60;99.90;;;;;;7318545;32;20187;-72
2022/08/28 09:26:39;;;;;;;9.43;1.95;;;20.70;99.90;;;;;;7314915;32;20123;-75
2022/08/28 09:30:42;;;;;;;8.57;1.92;;;20.50;99.90;;;;;;7306450;32;20191;-72
2022/08/28 09:35:06;;;;;;;7.78;2.00;;;20.70;99.90;;;;;;7326369;32;20103;-74
2022/08/28 09:39:12;;;;;;;12.07;2.53;;;20.70;99.90;;;;;;7310069;32;20250;-73
2022/08/28 09:43:25;;;;;;;5.25;1.70;;;20.70;99.90;;;;;;7299209;32;20610;-72
2022/08/28 09:47:36;;;;;;;7.45;1.75;;;21.40;99.90;;;;;;7303184;32;20120;-73
2022/08/28 09:51:49;;;;;;;6.32;2.28;;;22.70;99.90;;;;;;7325369;32;20153;-73
2022/08/28 09:56:02;;;;;;;5.35;1.77;;;22.80;99.90;;;;;;7319853;32;20105;-73
2022/08/28 10:00:05;;;;;;;8.57;2.30;;;22.50;99.90;;;;;;7316949;32;20481;-71
2022/08/28 10:04:16;;;;;;;6.60;1.62;;;23.00;99.90;;;;;;7330100;32;20520;-73
2022/08/28 10:08:33;;;;;;;7.03;1.58;;;23.40;99.90;;;;;;7318820;32;20127;-72
2022/08/28 10:13:00;;;;;;;7.62;2.03;;;23.70;99.90;;;;;;7309940;32;20628;-73
2022/08/28 10:17:25;;;;;;;;;;;24.10;99.90;;;;;;7319235;32;20550;-72
2022/08/28 10:21:36;;;;;;;7.00;2.00;;;24.40;98.20;;;;;;7298576;32;20102;-73
2022/08/28 10:25:45;;;;;;;8.93;2.30;;;24.10;97.00;;;;;;7321772;32;20161;-60
2022/08/28 10:30:06;;;;;;;6.32;2.15;;;24.80;97.70;;;;;;7322647;32;20119;-58
2022/08/28 10:34:31;;;;;;;5.30;1.87;;;25.00;96.30;;;;;;7318979;32;20560;-59
2022/08/28 10:39:10;;;;;;;6.20;2.10;;;24.60;95.60;;;;;;7315363;32;20126;-59
2022/08/28 10:43:40;;;;;;;7.28;2.00;;;24.60;96.60;;;;;;7317778;32;20112;-59
2022/08/28 10:47:47;;;;;;;7.68;2.00;;;24.30;95.80;;;;;;7316764;32;20770;-58
2022/08/28 10:51:54;;;;;;;8.32;1.83;;;23.80;95.70;;;;;;7315648;32;20528;-58
2022/08/28 10:56:01;;;;;;;6.20;1.48;;;23.50;95.70;;;;;;7317068;32;20206;-57
2022/08/28 11:00:12;;;;;;;7.07;1.90;;;23.60;96.70;;;;;;7308666;32;20461;-56
2022/08/28 11:04:19;;;;;;;7.18;2.35;;;23.20;97.80;;;;;;7317087;32;20239;-57
2022/08/28 11:08:33;;;;;;;7.65;2.22;;;23.50;97.70;;;;;;7318671;32;20171;-58
2022/08/28 11:12:40;;;;;;;11.18;2.17;;;23.60;97.30;;;;;;7321896;32;20913;-57
2022/08/28 11:16:45;;;;;;;6.55;2.05;;;23.40;97.00;;;;;;7321119;32;20466;-57
2022/08/28 11:21:07;;;;;;;5.07;2.00;;;22.70;98.30;;;;;;7317237;32;20226;-58
2022/08/28 11:25:22;;;;;;;6.93;2.15;;;22.30;99.30;;;;;;7310926;32;20175;-59
2022/08/28 11:30:07;;;;;;;7.53;2.03;;;22.60;98.80;;;;;;7322408;32;20211;-61
2022/08/28 11:34:48;;;;;;;4.20;1.62;;;22.70;97.30;;;;;;7318002;32;20148;-61
2022/08/28 11:38:56;;;;;;;15.60;5.82;;;22.50;97.10;;;;;;7319140;32;20178;-69
2022/08/28 11:43:13;;;;;;;455.08;326.48;;;23.00;97.60;;;;;;7320975;32;20189;-69
2022/08/28 11:47:46;;;;;;;9.10;2.22;;;23.70;96.50;;;;;;7320600;32;20505;-69
2022/08/28 11:52:08;;;;;;;5.32;1.62;;;23.40;95.30;;;;;;7317921;32;20162;-68
2022/08/28 11:56:58;;;;;;;7.07;1.55;;;23.80;96.20;;;;;;7311449;32;20191;-68
2022/08/28 12:01:27;;;;;;;6.75;1.92;;;23.90;94.00;;;;;;7265399;32;20232;-68
2022/08/28 12:05:29;;;;;;;8.45;1.90;;;24.00;94.90;;;;;;7312398;32;20119;-66
2022/08/28 12:09:46;;;;;;;8.02;1.90;;;24.40;94.40;;;;;;7320234;32;20145;-68
2022/08/28 12:13:51;;;;;;;9.05;1.50;;;24.10;92.00;;;;;;7310713;32;20107;-62
2022/08/28 12:18:02;;;;;;;6.05;1.98;;;23.90;93.20;;;;;;7318156;32;20633;-62
2022/08/28 12:22:23;;;;;;;5.12;1.55;;;24.20;95.40;;;;;;7312634;32;20149;-63
2022/08/28 12:26:45;;;;;;;8.07;1.75;;;24.20;92.60;;;;;;7316161;32;20712;-62
2022/08/28 12:31:05;;;;;;;6.97;1.80;;;24.10;94.40;;;;;;7315257;32;20534;-62
2022/08/28 12:35:19;;;;;;;6.25;1.58;;;24.40;93.30;;;;;;7317702;32;20127;-62
2022/08/28 12:39:21;;;;;;;5.97;1.40;;;24.20;92.70;;;;;;7312659;32;21262;-62
2022/08/28 12:43:27;;;;;;;4.30;1.50;;;24.10;94.10;;;;;;7300745;32;20311;-61
2022/08/28 12:47:30;;;;;;;5.07;1.37;;;24.30;92.80;;;;;;7310985;32;20137;-59
2022/08/28 12:51:35;;;;;;;5.62;1.37;;;24.20;93.00;;;;;;7311196;32;20552;-63
2022/08/28 12:55:39;;;;;;;5.60;1.37;;;24.40;92.30;;;;;;7315397;32;20578;-62
2022/08/28 12:59:46;;;;;;;5.80;1.60;;;24.10;91.50;;;;;;7294996;32;20187;-63
2022/08/28 13:03:55;;;;;;;5.25;1.55;;;24.30;92.30;;;;;;7309705;32;20773;-70
2022/08/28 13:08:01;;;;;;;6.00;1.40;;;24.10;90.70;;;;;;7297918;32;20178;-71
2022/08/28 13:12:03;;;;;;;4.30;1.25;;;24.20;91.70;;;;;;7305130;32;20794;-72
2022/08/28 13:16:10;;;;;;;5.07;1.52;;;24.10;91.50;;;;;;7313877;32;20665;-72
2022/08/28 13:20:33;;;;;;;6.55;1.50;;;24.30;90.30;;;;;;7305287;32;20437;-73
2022/08/28 13:24:39;;;;;;;6.47;1.33;;;24.30;91.70;;;;;;7320363;32;20626;-73
2022/08/28 13:28:42;;;;;;;4.90;1.27;;;24.10;91.00;;;;;;7326197;32;20296;-76
2022/08/28 13:32:56;;;;;;;5.97;1.40;;;24.20;91.50;;;;;;7324336;32;20108;-73
2022/08/28 13:37:04;;;;;;;6.32;1.30;;;24.30;91.10;;;;;;7322622;32;20260;-75
2022/08/28 13:41:20;;;;;;;3.80;1.40;;;24.50;90.00;;;;;;7321141;32;20587;-76
2022/08/28 13:45:22;;;;;;;4.15;1.30;;;24.30;89.40;;;;;;7328341;32;20160;-76
2022/08/28 13:49:26;;;;;;;6.12;1.15;;;24.50;90.50;;;;;;7326825;32;20115;-70
2022/08/28 13:53:28;;;;;;;5.07;1.12;;;24.60;87.50;;;;;;7319407;32;20164;-73
2022/08/28 13:57:32;;;;;;;6.65;1.25;;;24.50;88.10;;;;;;7325621;32;20950;-73
2022/08/28 14:05:58;;;;;;;6.82;1.58;;;24.50;87.10;;;;;;7309838;32;20222;-73
2022/08/28 14:10:00;;;;;;;6.72;1.48;;;24.50;85.00;;;;;;7320966;32;20156;-74
2022/08/28 14:14:03;;;;;;;3.22;0.90;;;24.60;84.70;;;;;;7328710;32;20127;-74
2022/08/28 14:18:05;;;;;;;5.00;1.27;;;24.50;85.00;;;;;;7325393;32;20243;-73
2022/08/28 14:22:07;;;;;;;8.10;1.50;;;25.00;86.70;;;;;;7322578;32;20234;-75
2022/08/28 14:26:08;;;;;;;3.12;1.02;;;25.20;87.20;;;;;;7321760;32;20177;-75
2022/08/28 14:30:11;;;;;;;3.72;1.25;;;25.20;84.40;;;;;;7324716;32;20183;-73
2022/08/28 14:34:16;;;;;;;6.20;2.95;;;25.30;84.50;;;;;;7321747;32;20186;-59
2022/08/28 14:38:18;;;;;;;6.57;3.35;;;25.60;82.50;;;;;;7317194;32;20095;-71
2022/08/28 14:42:19;;;;;;;4.05;1.17;;;25.30;81.10;;;;;;7307637;32;20099;-69
2022/08/28 14:46:27;;;;;;;3.47;1.10;;;25.00;80.50;;;;;;7316602;32;20154;-75
2022/08/28 14:50:29;;;;;;;4.00;1.40;;;25.00;81.90;;;;;;7315070;32;20213;-74
2022/08/28 14:54:31;;;;;;;7.03;1.10;;;25.10;80.90;;;;;;7320660;32;20127;-74
2022/08/28 14:58:33;;;;;;;3.78;1.30;;;24.80;80.50;;;;;;7314723;32;20194;-75
2022/08/28 15:02:35;;;;;;;5.80;1.12;;;24.90;81.80;;;;;;7316791;32;20109;-73
2022/08/28 15:06:37;;;;;;;8.48;1.25;;;24.20;81.50;;;;;;7305945;32;20141;-72
2022/08/28 15:10:41;;;;;;;6.15;1.08;;;24.20;82.90;;;;;;7312844;32;20184;-67
2022/08/28 15:14:43;;;;;;;5.25;1.30;;;24.10;82.50;;;;;;7316034;32;20092;-68
2022/08/28 15:18:57;;;;;;;9.48;3.58;;;23.90;83.70;;;;;;7320146;32;20862;-69
2022/08/28 15:22:58;;;;;;;5.53;1.12;;;23.80;84.90;;;;;;7318174;32;20638;-68
2022/08/28 15:27:01;;;;;;;4.35;0.90;;;23.70;85.90;;;;;;7318464;32;20116;-70
2022/08/28 15:31:03;;;;;;;4.47;0.95;;;23.60;83.60;;;;;;7321355;32;21053;-68
2022/08/28 15:35:06;;;;;;;6.07;1.50;;;23.70;83.70;;;;;;7320327;32;20146;-69
2022/08/28 15:43:28;;;;;;;6.90;1.30;;;23.20;84.90;;;;;;7316605;32;20232;-74
2022/08/28 15:47:30;;;;;;;3.67;1.20;;;23.20;85.10;;;;;;7311866;32;20123;-73
2022/08/28 15:51:32;;;;;;;2.50;1.00;;;23.00;84.10;;;;;;7318963;32;20135;-73
2022/08/28 15:55:34;;;;;;;4.07;0.90;;;22.90;84.30;;;;;;7309267;32;20100;-72
2022/08/28 15:59:37;;;;;;;7.03;1.02;;;22.80;84.50;;;;;;7314477;32;20107;-73
2022/08/28 16:03:51;;;;;;;2.72;1.00;;;22.80;84.70;;;;;;7323133;32;20110;-72
2022/08/28 16:07:53;;;;;;;4.45;1.08;;;22.60;84.50;;;;;;7310593;32;20626;-72
2022/08/28 16:11:55;;;;;;;3.22;1.08;;;22.70;86.90;;;;;;7311112;32;20200;-72
2022/08/28 16:15:57;;;;;;;3.58;1.08;;;22.60;85.50;;;;;;7314695;32;20539;-73
2022/08/28 16:19:59;;;;;;;3.17;0.90;;;22.60;86.70;;;;;;7295807;32;20202;-73
2022/08/28 16:24:01;;;;;;;3.53;0.90;;;22.40;86.80;;;;;;7299053;32;20157;-73
2022/08/28 16:28:04;;;;;;;4.00;1.20;;;22.40;88.60;;;;;;7320471;32;20108;-73
2022/08/28 16:32:06;;;;;;;1.48;0.80;;;22.40;86.90;;;;;;7316605;32;20206;-72
2022/08/28 16:36:12;;;;;;;2.50;1.05;;;22.40;87.20;;;;;;7312238;32;20119;-59
2022/08/28 16:40:14;;;;;;;7.00;1.50;;;22.30;88.80;;;;;;7303997;32;20191;-58
2022/08/28 16:44:21;;;;;;;5.35;1.55;;;22.30;87.70;;;;;;7322732;32;20216;-58
2022/08/28 16:48:23;;;;;;;5.75;2.58;;;22.30;90.00;;;;;;7318800;32;20249;-66
2022/08/28 16:52:25;;;;;;;6.95;1.17;;;22.20;87.70;;;;;;7315694;32;20103;-66
2022/08/28 16:56:27;;;;;;;4.03;1.00;;;22.10;87.80;;;;;;7301873;32;20275;-58
2022/08/28 17:00:30;;;;;;;5.57;1.00;;;22.00;89.50;;;;;;7311627;32;20556;-71
2022/08/28 17:04:32;;;;;;;3.87;0.95;;;21.90;88.60;;;;;;7317106;32;20137;-70
2022/08/28 17:08:34;;;;;;;4.82;1.25;;;21.90;88.30;;;;;;7311029;32;20677;-70
2022/08/28 17:12:36;;;;;;;4.12;1.10;;;21.90;88.50;;;;;;7316749;32;20293;-65
2022/08/28 17:16:38;;;;;;;3.92;1.10;;;21.80;90.40;;;;;;7319774;32;20121;-66
2022/08/28 17:25:08;;;;;;;4.85;1.12;;;21.60;90.20;;;;;;7315653;32;22166;-68
2022/08/28 17:29:10;;;;;;;4.57;1.17;;;21.50;90.20;;;;;;7314477;32;20751;-65
2022/08/28 17:33:12;;;;;;;4.45;1.17;;;21.30;90.70;;;;;;7318538;32;20821;-65
2022/08/28 17:37:15;;;;;;;4.65;1.20;;;21.30;90.70;;;;;;7316054;32;20686;-64
2022/08/28 17:41:16;;;;;;;4.22;1.25;;;21.10;92.50;;;;;;7320927;32;20253;-66
2022/08/28 17:45:18;;;;;;;5.12;1.37;;;21.10;91.90;;;;;;7310286;32;20119;-64
2022/08/28 17:49:21;;;;;;;5.57;1.30;;;20.90;92.10;;;;;;7314667;32;20095;-65
2022/08/28 17:53:23;;;;;;;3.37;0.95;;;20.70;91.90;;;;;;7305230;32;20135;-66
2022/08/28 17:57:29;;;;;;;4.65;1.00;;;20.50;92.20;;;;;;7300383;32;20273;-65
2022/08/28 18:01:31;;;;;;;2.28;1.35;;;20.40;94.30;;;;;;7312487;32;20130;-65
2022/08/28 18:05:36;;;;;;;4.78;1.35;;;20.30;92.70;;;;;;7312507;32;20202;-67
2022/08/28 18:09:37;;;;;;;4.45;1.50;;;20.20;92.60;;;;;;7315198;32;20165;-68
2022/08/28 18:13:41;;;;;;;8.55;3.10;;;20.10;92.90;;;;;;7323487;32;20481;-68
2022/08/28 18:17:46;;;;;;;5.37;2.87;;;19.90;93.60;;;;;;7308492;32;20213;-68
2022/08/28 18:21:48;;;;;;;5.00;1.23;;;19.90;93.20;;;;;;7305639;32;20140;-67
2022/08/28 18:25:51;;;;;;;7.25;1.30;;;19.80;93.50;;;;;;7319025;32;20112;-69
2022/08/28 18:29:53;;;;;;;2.50;1.30;;;19.50;94.50;;;;;;7321411;32;20561;-67
2022/08/28 18:34:02;;;;;;;4.40;1.50;;;19.40;94.10;;;;;;7308818;32;20103;-69
2022/08/28 18:38:05;;;;;;;3.80;1.27;;;19.20;95.50;;;;;;7316582;32;20187;-67
2022/08/28 18:42:06;;;;;;;6.43;1.27;;;19.10;96.00;;;;;;7325584;32;20901;-61
2022/08/28 18:46:08;;;;;;;6.07;1.50;;;18.90;97.20;;;;;;7322627;32;20202;-63
2022/08/28 18:50:11;;;;;;;4.60;1.33;;;18.60;97.80;;;;;;7321373;32;20231;-63
2022/08/28 18:54:16;;;;;;;4.37;1.70;;;18.50;98.80;;;;;;7322029;32;20524;-62
2022/08/28 18:58:18;;;;;;;5.82;1.30;;;18.30;99.30;;;;;;7308298;32;20128;-62
2022/08/28 19:02:20;;;;;;;4.00;1.70;;;18.10;99.90;;;;;;7320202;32;20092;-64
2022/08/28 19:06:22;;;;;;;10.93;6.82;;;18.10;99.90;;;;;;7320176;32;20193;-61
2022/08/28 19:10:25;;;;;;;5.95;3.08;;;18.00;99.90;;;;;;7314396;32;20676;-64
2022/08/28 19:14:35;;;;;;;5.57;1.67;;;17.90;99.90;;;;;;7320844;32;20174;-62
2022/08/28 19:18:37;;;;;;;3.05;1.25;;;17.80;99.90;;;;;;7306078;32;20221;-63
2022/08/28 19:22:40;;;;;;;4.28;1.60;;;17.70;99.90;;;;;;7309865;32;20108;-64
2022/08/28 19:26:45;;;;;;;3.87;1.33;;;17.70;99.90;;;;;;7319108;32;20177;-63
2022/08/28 19:30:46;;;;;;;4.93;1.77;;;17.60;99.90;;;;;;7317232;32;20123;-63
2022/08/28 19:34:48;;;;;;;7.37;1.70;;;17.40;99.90;;;;;;7321613;32;20552;-63
2022/08/28 19:38:50;;;;;;;7.07;1.50;;;17.30;99.90;;;;;;7312020;32;20156;-63
2022/08/28 19:42:52;;;;;;;6.70;1.80;;;17.10;99.90;;;;;;7320281;32;20165;-68
2022/08/28 19:46:54;;;;;;;4.15;1.75;;;17.00;99.90;;;;;;7318456;32;20100;-65
2022/08/28 19:51:07;;;;;;;3.62;1.58;;;16.80;99.90;;;;;;7316670;32;20566;-64
2022/08/28 19:55:30;;;;;;;4.65;1.33;;;16.80;99.90;;;;;;7310536;32;20525;-66
2022/08/28 19:59:33;;;;;;;4.10;1.40;;;16.60;99.90;;;;;;7318866;32;20108;-66
2022/08/28 20:03:35;;;;;;;4.25;1.60;;;16.50;99.90;;;;;;7321499;32;20274;-64
2022/08/28 20:07:36;;;;;;;5.80;1.80;;;16.40;99.90;;;;;;7313133;32;20709;-64
2022/08/28 20:11:40;;;;;;;5.50;1.70;;;16.30;99.90;;;;;;7319260;32;20186;-64
2022/08/28 20:15:45;;;;;;;4.55;1.67;;;16.20;99.90;;;;;;7319955;32;20104;-65
2022/08/28 20:19:47;;;;;;;5.45;1.60;;;16.10;99.90;;;;;;7314295;32;20203;-64
2022/08/28 20:23:49;;;;;;;6.75;1.62;;;16.00;99.90;;;;;;7307323;32;20111;-62
2022/08/28 20:27:50;;;;;;;7.35;1.60;;;15.90;99.90;;;;;;7299245;32;20095;-64
2022/08/28 20:31:53;;;;;;;5.57;1.65;;;15.90;99.90;;;;;;7300043;32;20234;-64
2022/08/28 20:36:03;;;;;;;5.80;1.62;;;15.90;99.90;;;;;;7309871;32;44941;-62
2022/08/28 20:40:07;;;;;;;5.60;1.35;;;15.80;99.90;;;;;;7306248;32;20099;-64
2022/08/28 20:44:13;;;;;;;5.30;1.40;;;15.80;99.90;;;;;;7299724;32;20166;-64
2022/08/28 20:48:15;;;;;;;6.47;1.70;;;15.60;99.90;;;;;;7300338;32;20099;-64
2022/08/28 20:52:16;;;;;;;3.53;1.62;;;15.50;99.90;;;;;;7308453;32;20240;-64
2022/08/28 20:56:18;;;;;;;4.12;1.48;;;15.50;99.90;;;;;;7308474;32;20280;-63
2022/08/28 21:00:20;;;;;;;4.30;1.77;;;15.40;99.90;;;;;;7315145;32;20127;-61
2022/08/28 21:04:23;;;;;;;4.20;1.50;;;15.30;99.90;;;;;;7308481;32;20216;-61
2022/08/28 21:08:24;;;;;;;6.00;1.80;;;15.20;99.90;;;;;;7316882;32;20161;-61
2022/08/28 21:12:26;;;;;;;4.05;1.62;;;15.20;99.90;;;;;;7319253;32;20487;-61
2022/08/28 21:16:29;;;;;;;7.75;1.60;;;15.30;99.90;;;;;;7318842;32;20198;-60
2022/08/28 21:20:30;;;;;;;4.28;1.60;;;15.40;99.90;;;;;;7304691;32;20120;-61
2022/08/28 21:24:32;;;;;;;4.87;1.60;;;15.40;99.90;;;;;;7316998;32;20263;-61
2022/08/28 21:28:34;;;;;;;6.80;1.40;;;15.40;99.90;;;;;;7303319;32;20186;-61